createdAt,value
2018-10-19T00:01:22.324Z,6.92
2018-10-19T00:03:50.148Z,6.92
2018-10-19T00:06:17.632Z,6.91
2018-10-19T00:08:45.139Z,6.88
2018-10-19T00:11:13.091Z,6.85
2018-10-19T00:13:40.617Z,6.82
2018-10-19T00:16:08.035Z,6.77
2018-10-19T00:18:35.649Z,6.72
2018-10-19T00:21:03.190Z,6.36
2018-10-19T00:23:30.638Z,6.71
2018-10-19T00:25:58.424Z,6.72
2018-10-19T00:28:25.942Z,6.74
2018-10-19T00:30:53.418Z,6.75
2018-10-19T00:33:21.226Z,6.75
2018-10-19T00:35:48.686Z,6.76
2018-10-19T00:38:16.181Z,6.73
2018-10-19T00:40:43.985Z,6.72
2018-10-19T00:43:11.454Z,6.73
2018-10-19T00:45:45.560Z,6.73
2018-10-19T00:48:15.247Z,6.70
2018-10-19T00:50:43.031Z,6.68
2018-10-19T00:53:11.134Z,6.67
2018-10-19T00:55:39.034Z,6.69
2018-10-19T00:58:06.712Z,6.70
2018-10-19T01:00:41.873Z,6.67
2018-10-19T01:03:09.691Z,6.64
2018-10-19T01:05:37.976Z,6.62
2018-10-19T01:08:05.945Z,6.61
2018-10-19T01:10:33.480Z,6.60
2018-10-19T01:13:01.061Z,6.60
2018-10-19T01:15:29.655Z,6.53
2018-10-19T01:17:57.551Z,6.46
2018-10-19T01:20:25.042Z,6.41
2018-10-19T01:22:53.080Z,6.38
2018-10-19T01:25:20.486Z,6.35
2018-10-19T01:27:47.958Z,6.33
2018-10-19T01:30:15.685Z,6.30
2018-10-19T01:32:43.137Z,6.31
2018-10-19T01:35:11.910Z,6.30
2018-10-19T01:37:39.982Z,6.30
2018-10-19T01:40:09.067Z,6.31
2018-10-19T01:42:36.831Z,6.30
2018-10-19T01:45:05.674Z,6.29
2018-10-19T01:47:33.212Z,6.29
2018-10-19T01:50:00.672Z,6.29
2018-10-19T01:52:28.478Z,6.28
2018-10-19T01:54:55.950Z,6.25
2018-10-19T01:57:23.423Z,6.24
2018-10-19T01:59:51.484Z,6.24
2018-10-19T02:02:18.931Z,6.26
2018-10-19T02:04:46.802Z,6.27
2018-10-19T02:07:14.750Z,6.26
2018-10-19T02:09:42.213Z,6.25
2018-10-19T02:12:09.775Z,6.22
2018-10-19T02:14:37.613Z,6.17
2018-10-19T02:17:05.548Z,6.16
2018-10-19T02:19:32.996Z,6.14
2018-10-19T02:22:00.832Z,6.10
2018-10-19T02:24:28.310Z,6.08
2018-10-19T02:26:55.855Z,6.07
2018-10-19T02:29:23.464Z,6.01
2018-10-19T02:31:50.971Z,5.99
2018-10-19T02:34:18.441Z,5.99
2018-10-19T02:36:46.403Z,6.00
2018-10-19T02:39:13.905Z,6.04
2018-10-19T02:41:41.529Z,6.07
2018-10-19T02:44:09.414Z,6.09
2018-10-19T02:46:36.828Z,6.12
2018-10-19T02:49:04.721Z,6.16
2018-10-19T02:51:32.502Z,6.18
2018-10-19T02:53:59.967Z,6.20
2018-10-19T02:56:27.441Z,6.16
2018-10-19T02:58:55.433Z,6.15
2018-10-19T03:01:22.909Z,6.11
2018-10-19T03:03:50.416Z,6.08
2018-10-19T03:06:18.252Z,6.07
2018-10-19T03:08:45.750Z,6.05
2018-10-19T03:11:13.209Z,6.01
2018-10-19T03:13:41.062Z,6.00
2018-10-19T03:16:08.615Z,5.99
2018-10-19T03:18:36.078Z,5.98
2018-10-19T03:21:04.156Z,5.98
2018-10-19T03:23:31.639Z,5.98
2018-10-19T03:25:59.094Z,5.98
2018-10-19T03:28:26.870Z,5.99
2018-10-19T03:30:54.305Z,6.03
2018-10-19T03:33:21.795Z,6.06
2018-10-19T03:35:49.619Z,6.09
2018-10-19T03:38:17.132Z,6.13
2018-10-19T03:40:44.659Z,6.18
2018-10-19T03:43:12.426Z,6.23
2018-10-19T03:45:39.850Z,6.31
2018-10-19T03:48:07.379Z,6.40
2018-10-19T03:50:35.118Z,6.49
2018-10-19T03:53:02.568Z,6.58
2018-10-19T03:55:29.998Z,6.64
2018-10-19T03:57:57.973Z,6.71
2018-10-19T04:00:25.413Z,6.76
2018-10-19T04:02:52.894Z,6.81
2018-10-19T04:05:21.391Z,6.87
2018-10-19T04:07:48.881Z,6.91
2018-10-19T04:10:16.377Z,6.98
2018-10-19T04:12:44.284Z,7.04
2018-10-19T04:15:11.754Z,7.08
2018-10-19T04:17:39.207Z,7.13
2018-10-19T04:20:07.056Z,7.17
2018-10-19T04:22:34.577Z,7.21
2018-10-19T04:25:02.231Z,7.25
2018-10-19T04:27:30.217Z,7.28
2018-10-19T04:29:57.697Z,7.32
2018-10-19T04:32:25.159Z,7.33
2018-10-19T04:34:52.829Z,7.36
2018-10-19T04:37:20.305Z,7.39
2018-10-19T04:39:47.792Z,7.40
2018-10-19T04:42:15.722Z,7.43
2018-10-19T04:44:43.139Z,7.46
2018-10-19T04:47:10.662Z,7.47
2018-10-19T04:49:38.648Z,7.48
2018-10-19T04:52:06.155Z,7.49
2018-10-19T04:54:33.603Z,7.51
2018-10-19T04:57:01.665Z,7.52
2018-10-19T04:59:29.123Z,7.54
2018-10-19T05:01:56.530Z,7.57
2018-10-19T05:04:24.301Z,7.56
2018-10-19T05:06:51.764Z,7.58
2018-10-19T05:09:19.213Z,7.61
2018-10-19T05:11:47.066Z,7.61
2018-10-19T05:14:14.667Z,7.62
2018-10-19T05:16:42.079Z,7.63
2018-10-19T05:19:09.956Z,7.63
2018-10-19T05:21:37.781Z,7.63
2018-10-19T05:24:05.465Z,7.62
2018-10-19T05:26:33.242Z,7.61
2018-10-19T05:29:00.811Z,7.61
2018-10-19T05:31:28.323Z,7.61
2018-10-19T05:33:56.882Z,7.62
2018-10-19T05:36:24.611Z,7.64
2018-10-19T05:38:52.090Z,7.64
2018-10-19T05:41:20.288Z,7.63
2018-10-19T05:43:47.687Z,7.63
2018-10-19T05:46:15.197Z,7.64
2018-10-19T05:48:43.012Z,7.67
2018-10-19T05:51:10.933Z,7.68
2018-10-19T05:53:38.397Z,7.69
2018-10-19T05:56:06.429Z,7.71
2018-10-19T05:58:33.803Z,7.71
2018-10-19T06:01:01.277Z,7.71
2018-10-19T06:03:29.306Z,7.72
2018-10-19T06:05:56.779Z,7.71
2018-10-19T06:08:24.262Z,7.72
2018-10-19T06:10:52.000Z,7.72
2018-10-19T06:13:19.633Z,7.71
2018-10-19T06:15:47.115Z,7.72
2018-10-19T06:18:15.012Z,7.72
2018-10-19T06:20:42.506Z,7.72
2018-10-19T06:23:10.137Z,7.72
2018-10-19T06:25:38.204Z,7.72
2018-10-19T06:28:05.874Z,7.75
2018-10-19T06:30:33.359Z,7.75
2018-10-19T06:33:01.194Z,7.76
2018-10-19T06:35:28.694Z,7.77
2018-10-19T06:37:56.272Z,7.77
2018-10-19T06:40:24.286Z,7.78
2018-10-19T06:42:51.737Z,7.78
2018-10-19T06:45:19.267Z,7.80
2018-10-19T06:47:47.099Z,7.80
2018-10-19T06:50:14.684Z,7.80
2018-10-19T06:52:42.075Z,7.80
2018-10-19T06:55:13.170Z,7.82
2018-10-19T06:57:40.607Z,7.81
2018-10-19T07:00:08.121Z,7.83
2018-10-19T07:02:35.929Z,7.83
2018-10-19T07:05:03.541Z,7.84
2018-10-19T07:07:31.026Z,7.86
2018-10-19T07:09:58.740Z,7.87
2018-10-19T07:12:26.247Z,7.89
2018-10-19T07:14:53.680Z,7.90
2018-10-19T07:17:21.762Z,7.93
2018-10-19T07:19:49.233Z,7.94
2018-10-19T07:22:16.776Z,7.98
2018-10-19T07:24:45.462Z,8.00
2018-10-19T07:27:12.985Z,8.02
2018-10-19T07:29:40.439Z,8.05
2018-10-19T07:32:08.170Z,8.07
2018-10-19T07:34:35.653Z,8.09
2018-10-19T07:37:03.135Z,8.12
2018-10-19T07:39:30.939Z,8.13
2018-10-19T07:41:58.429Z,7.89
2018-10-19T07:44:25.890Z,8.19
2018-10-19T07:46:53.870Z,8.22
2018-10-19T07:49:21.296Z,8.24
2018-10-19T07:51:48.730Z,8.26
2018-10-19T07:54:16.462Z,8.30
2018-10-19T07:56:43.952Z,8.33
2018-10-19T07:59:11.411Z,8.35
2018-10-19T08:01:39.380Z,8.36
2018-10-19T08:04:06.848Z,8.40
2018-10-19T08:06:34.384Z,8.42
2018-10-19T08:09:02.150Z,8.45
2018-10-19T08:11:29.632Z,8.48
2018-10-19T08:13:57.098Z,8.51
2018-10-19T08:16:25.152Z,8.54
2018-10-19T08:18:52.598Z,8.58
2018-10-19T08:21:20.077Z,8.61
2018-10-19T08:23:47.976Z,8.67
2018-10-19T08:26:15.448Z,8.71
2018-10-19T08:28:42.997Z,8.75
2018-10-19T08:31:11.162Z,8.80
2018-10-19T08:33:38.647Z,8.83
2018-10-19T08:36:06.132Z,8.88
2018-10-19T08:38:34.049Z,8.92
2018-10-19T08:41:01.603Z,8.97
2018-10-19T08:43:29.049Z,9.01
2018-10-19T08:46:01.435Z,9.04
2018-10-19T08:48:28.926Z,9.10
2018-10-19T08:50:56.438Z,9.13
2018-10-19T08:53:24.094Z,9.17
2018-10-19T08:55:52.191Z,9.21
2018-10-19T08:58:19.726Z,9.25
2018-10-19T09:00:47.338Z,9.30
2018-10-19T09:03:14.896Z,9.34
2018-10-19T09:05:42.362Z,9.38
2018-10-19T09:08:10.115Z,9.43
2018-10-19T09:10:37.641Z,9.48
2018-10-19T09:13:05.752Z,9.53
2018-10-19T09:15:33.290Z,9.59
2018-10-19T09:18:00.999Z,9.63
2018-10-19T09:20:28.489Z,9.68
2018-10-19T09:22:56.123Z,9.72
2018-10-19T09:25:24.171Z,9.77
2018-10-19T09:27:51.632Z,9.84
2018-10-19T09:30:19.673Z,9.93
2018-10-19T09:32:47.437Z,10.02
2018-10-19T09:35:14.971Z,10.10
2018-10-19T09:37:42.702Z,10.18
2018-10-19T09:40:10.447Z,10.26
2018-10-19T09:42:37.920Z,10.33
2018-10-19T09:45:06.422Z,10.42
2018-10-19T09:47:34.184Z,10.48
2018-10-19T09:50:01.593Z,10.55
2018-10-19T09:52:29.314Z,10.60
2018-10-19T09:54:56.893Z,10.63
2018-10-19T09:57:24.346Z,10.66
2018-10-19T09:59:52.058Z,10.70
2018-10-19T10:02:19.804Z,10.74
2018-10-19T10:04:47.296Z,10.78
2018-10-19T10:07:14.885Z,10.81
2018-10-19T10:09:42.627Z,10.85
2018-10-19T10:12:10.141Z,10.88
2018-10-19T10:14:37.865Z,10.90
2018-10-19T10:17:05.664Z,10.93
2018-10-19T10:19:33.113Z,10.96
2018-10-19T10:22:00.747Z,10.99
2018-10-19T10:24:28.506Z,11.03
2018-10-19T10:26:56.134Z,11.06
2018-10-19T10:29:23.754Z,11.12
2018-10-19T10:31:51.517Z,11.17
2018-10-19T10:34:19.019Z,11.23
2018-10-19T10:36:46.641Z,11.28
2018-10-19T10:39:14.468Z,11.32
2018-10-19T10:41:41.857Z,11.35
2018-10-19T10:44:09.658Z,11.38
2018-10-19T10:46:37.584Z,11.46
2018-10-19T10:49:05.475Z,11.54
2018-10-19T10:51:33.083Z,11.60
2018-10-19T10:54:00.708Z,11.66
2018-10-19T10:56:28.118Z,11.74
2018-10-19T10:58:56.138Z,11.84
2018-10-19T11:01:23.799Z,11.92
2018-10-19T11:03:51.300Z,12.01
2018-10-19T11:06:18.948Z,12.08
2018-10-19T11:08:46.484Z,12.11
2018-10-19T11:11:14.703Z,12.14
2018-10-19T11:13:43.075Z,12.20
2018-10-19T11:16:11.576Z,12.25
2018-10-19T11:18:39.349Z,12.32
2018-10-19T11:21:07.158Z,12.38
2018-10-19T11:23:34.824Z,12.43
2018-10-19T11:26:02.564Z,12.46
2018-10-19T11:28:30.544Z,12.53
2018-10-19T11:30:58.377Z,12.53
2018-10-19T11:33:25.818Z,12.52
2018-10-19T11:35:53.552Z,12.55
2018-10-19T11:38:21.350Z,12.55
2018-10-19T11:40:48.829Z,12.55
2018-10-19T11:43:16.462Z,12.53
2018-10-19T11:45:44.247Z,12.49
2018-10-19T11:48:11.800Z,12.48
2018-10-19T11:50:39.633Z,12.50
2018-10-19T11:53:07.474Z,12.48
2018-10-19T11:55:34.900Z,12.49
2018-10-19T11:58:02.719Z,12.52
2018-10-19T12:00:30.275Z,12.56
2018-10-19T12:02:57.724Z,12.58
2018-10-19T12:05:25.426Z,12.59
2018-10-19T12:07:53.736Z,12.60
2018-10-19T12:10:21.208Z,12.61
2018-10-19T12:12:49.105Z,12.33
2018-10-19T12:15:17.227Z,12.60
2018-10-19T12:17:45.172Z,12.61
2018-10-19T12:20:16.253Z,12.60
2018-10-19T12:22:44.007Z,12.59
2018-10-19T12:25:12.388Z,12.56
2018-10-19T12:27:40.347Z,12.54
2018-10-19T12:30:08.586Z,12.51
2018-10-19T12:32:36.270Z,12.50
2018-10-19T12:35:04.852Z,12.50
2018-10-19T12:37:32.612Z,12.51
2018-10-19T12:40:00.161Z,12.51
2018-10-19T12:42:27.751Z,12.50
2018-10-19T12:44:55.614Z,12.51
2018-10-19T12:47:35.093Z,12.53
2018-10-19T12:50:02.691Z,12.52
2018-10-19T12:52:30.215Z,12.54
2018-10-19T12:54:58.377Z,12.58
2018-10-19T12:57:25.843Z,12.63
2018-10-19T12:59:53.497Z,12.66
2018-10-19T13:02:21.632Z,12.70
2018-10-19T13:04:49.140Z,12.71
2018-10-19T13:07:16.633Z,12.74
2018-10-19T13:09:44.613Z,12.74
2018-10-19T13:12:12.299Z,12.73
2018-10-19T13:14:39.838Z,12.74
2018-10-19T13:17:07.684Z,12.75
2018-10-19T13:19:35.138Z,12.76
2018-10-19T13:22:02.611Z,12.75
2018-10-19T13:24:30.325Z,12.74
2018-10-19T13:26:57.793Z,12.71
2018-10-19T13:29:25.304Z,12.68
2018-10-19T13:31:53.166Z,12.65
2018-10-19T13:34:20.666Z,12.63
2018-10-19T13:36:48.214Z,12.63
2018-10-19T13:39:15.883Z,12.62
2018-10-19T13:41:43.380Z,12.60
2018-10-19T13:44:11.058Z,12.59
2018-10-19T13:46:38.981Z,12.58
2018-10-19T13:49:06.524Z,12.55
2018-10-19T13:51:34.393Z,12.54
2018-10-19T13:54:02.135Z,12.50
2018-10-19T13:56:29.827Z,12.48
2018-10-19T13:58:57.395Z,12.44
2018-10-19T14:01:25.400Z,12.41
2018-10-19T14:03:52.899Z,12.40
2018-10-19T14:06:20.400Z,12.37
2018-10-19T14:08:48.205Z,12.36
2018-10-19T14:11:15.671Z,12.34
2018-10-19T14:13:43.143Z,12.32
2018-10-19T14:16:10.983Z,12.28
2018-10-19T14:18:38.486Z,12.25
2018-10-19T14:21:06.025Z,12.23
2018-10-19T14:23:33.746Z,12.19
2018-10-19T14:26:01.193Z,12.17
2018-10-19T14:28:28.736Z,12.14
2018-10-19T14:30:56.572Z,12.11
2018-10-19T14:33:24.181Z,12.07
2018-10-19T14:35:52.469Z,12.05
2018-10-19T14:38:20.631Z,12.02
2018-10-19T14:40:48.168Z,12.00
2018-10-19T14:43:15.622Z,11.96
2018-10-19T14:45:43.776Z,11.94
2018-10-19T14:48:11.238Z,11.90
2018-10-19T14:50:38.700Z,11.88
2018-10-19T14:53:06.807Z,11.86
2018-10-19T14:55:34.269Z,11.85
2018-10-19T14:58:01.878Z,11.78
2018-10-19T15:00:29.752Z,11.73
2018-10-19T15:02:57.224Z,11.67
2018-10-19T15:05:24.710Z,11.61
2018-10-19T15:07:52.382Z,11.56
2018-10-19T15:10:21.289Z,11.53
2018-10-19T15:12:48.593Z,11.49
2018-10-19T15:15:17.636Z,11.48
2018-10-19T15:17:45.249Z,11.49
2018-10-19T15:20:13.223Z,11.48
2018-10-19T15:22:40.859Z,11.43
2018-10-19T15:25:09.033Z,11.37
2018-10-19T15:27:36.937Z,11.26
2018-10-19T15:30:05.524Z,11.18
2018-10-19T15:32:32.987Z,11.10
2018-10-19T15:35:00.420Z,11.06
2018-10-19T15:37:28.057Z,11.05
2018-10-19T15:39:55.555Z,11.05
2018-10-19T15:42:23.046Z,11.02
2018-10-19T15:44:50.642Z,10.99
2018-10-19T15:47:18.066Z,10.95
2018-10-19T15:49:45.483Z,10.92
2018-10-19T15:52:13.440Z,10.88
2018-10-19T15:54:41.018Z,10.83
2018-10-19T15:57:08.511Z,10.76
2018-10-19T15:59:36.420Z,10.67
2018-10-19T16:02:04.123Z,10.58
2018-10-19T16:04:31.572Z,10.49
2018-10-19T16:06:59.451Z,10.43
2018-10-19T16:09:26.895Z,10.38
2018-10-19T16:11:54.416Z,10.34
2018-10-19T16:14:22.183Z,10.31
2018-10-19T16:16:49.645Z,9.97
2018-10-19T16:19:17.662Z,10.21
2018-10-19T16:21:45.462Z,10.16
2018-10-19T16:24:12.944Z,10.10
2018-10-19T16:26:40.385Z,10.04
2018-10-19T16:29:08.626Z,9.98
2018-10-19T16:31:36.103Z,9.90
2018-10-19T16:34:03.806Z,9.84
2018-10-19T16:36:31.555Z,9.78
2018-10-19T16:38:58.977Z,9.70
2018-10-19T16:41:26.427Z,9.66
2018-10-19T16:43:54.270Z,9.60
2018-10-19T16:46:21.791Z,9.53
2018-10-19T16:48:49.242Z,9.47
2018-10-19T16:51:17.085Z,9.39
2018-10-19T16:53:44.556Z,9.32
2018-10-19T16:56:12.033Z,9.27
2018-10-19T16:58:39.886Z,9.23
2018-10-19T17:01:07.447Z,9.19
2018-10-19T17:03:34.853Z,9.15
2018-10-19T17:06:02.527Z,9.09
2018-10-19T17:08:29.984Z,9.04
2018-10-19T17:10:57.436Z,9.00
2018-10-19T17:13:25.272Z,8.95
2018-10-19T17:15:52.758Z,8.91
2018-10-19T17:18:20.218Z,8.87
2018-10-19T17:20:47.957Z,8.82
2018-10-19T17:23:15.453Z,8.74
2018-10-19T17:25:42.949Z,8.69
2018-10-19T17:28:10.805Z,8.63
2018-10-19T17:30:38.407Z,8.57
2018-10-19T17:33:06.052Z,8.51
2018-10-19T17:35:33.822Z,8.48
2018-10-19T17:38:01.329Z,8.44
2018-10-19T17:40:28.824Z,8.38
2018-10-19T17:42:56.859Z,8.35
2018-10-19T17:45:24.351Z,8.29
2018-10-19T17:47:51.937Z,8.25
2018-10-19T17:50:19.595Z,8.20
2018-10-19T17:52:47.075Z,8.15
2018-10-19T17:55:14.514Z,8.11
2018-10-19T17:57:42.520Z,8.06
2018-10-19T18:00:11.379Z,8.01
2018-10-19T18:02:38.986Z,7.96
2018-10-19T18:05:06.996Z,7.94
2018-10-19T18:07:34.543Z,7.91
2018-10-19T18:10:02.002Z,7.90
2018-10-19T18:12:29.882Z,7.90
2018-10-19T18:14:57.373Z,7.89
2018-10-19T18:17:24.843Z,7.88
2018-10-19T18:19:52.540Z,7.88
2018-10-19T18:22:20.280Z,7.86
2018-10-19T18:24:47.494Z,7.84
2018-10-19T18:27:15.422Z,7.80
2018-10-19T18:29:42.928Z,7.77
2018-10-19T18:32:10.559Z,7.72
2018-10-19T18:34:38.494Z,7.68
2018-10-19T18:37:06.134Z,7.65
2018-10-19T18:39:33.631Z,7.64
2018-10-19T18:42:01.447Z,7.63
2018-10-19T18:44:28.997Z,7.63
2018-10-19T18:46:56.529Z,7.61
2018-10-19T18:49:24.118Z,7.60
2018-10-19T18:51:51.755Z,7.60
2018-10-19T18:54:19.315Z,7.58
2018-10-19T18:56:47.048Z,7.55
2018-10-19T18:59:14.784Z,7.53
2018-10-19T19:01:42.321Z,7.50
2018-10-19T19:04:10.122Z,7.47
2018-10-19T19:06:37.623Z,7.44
2018-10-19T19:09:08.113Z,7.43
2018-10-19T19:11:36.074Z,7.42
2018-10-19T19:14:03.593Z,7.11
2018-10-19T19:16:31.250Z,7.41
2018-10-19T19:18:58.890Z,7.39
2018-10-19T19:21:26.329Z,7.41
2018-10-19T19:26:00.282Z,7.41
2018-10-19T19:28:27.978Z,7.35
2018-10-19T19:30:55.523Z,7.33
2018-10-19T19:33:28.735Z,7.33
2018-10-19T19:35:56.370Z,7.30
2018-10-19T19:38:23.825Z,7.27
2018-10-19T19:40:57.077Z,7.25
2018-10-19T19:43:24.731Z,7.20
2018-10-19T19:45:52.187Z,7.19
2018-10-19T19:48:25.322Z,7.18
2018-10-19T19:50:53.020Z,7.16
2018-10-19T19:53:20.475Z,7.15
2018-10-19T19:55:48.232Z,7.14
2018-10-19T19:58:15.954Z,7.11
2018-10-19T20:00:43.433Z,7.07
2018-10-19T20:03:11.076Z,7.04
2018-10-19T20:05:38.814Z,7.03
2018-10-19T20:08:06.358Z,7.05
2018-10-19T20:10:33.937Z,7.04
2018-10-19T20:13:01.628Z,7.03
2018-10-19T20:15:29.078Z,7.03
2018-10-19T20:17:56.749Z,7.01
2018-10-19T20:20:24.449Z,6.96
2018-10-19T20:22:51.920Z,6.94
2018-10-19T20:25:19.400Z,6.94
2018-10-19T20:27:47.072Z,6.95
2018-10-19T20:30:14.530Z,6.97
2018-10-19T20:32:42.216Z,6.99
2018-10-19T20:37:49.641Z,7.04
2018-10-19T20:40:17.053Z,7.03
2018-10-19T20:42:44.518Z,6.98
2018-10-19T20:45:12.430Z,6.91
2018-10-19T20:47:39.911Z,6.88
2018-10-19T20:50:07.480Z,6.87
2018-10-19T20:52:35.204Z,6.81
2018-10-19T20:55:02.741Z,6.89
2018-10-19T20:57:30.260Z,6.91
2018-10-19T20:59:58.056Z,6.91
2018-10-19T21:02:25.565Z,6.90
2018-10-19T21:04:53.040Z,6.88
2018-10-19T21:07:20.982Z,6.86
2018-10-19T21:09:48.377Z,6.86
2018-10-19T21:12:15.829Z,6.86
2018-10-19T21:14:43.452Z,6.88
2018-10-19T21:17:10.917Z,6.87
2018-10-19T21:19:38.350Z,6.87
2018-10-19T21:22:06.378Z,6.88
2018-10-19T21:24:33.822Z,6.87
2018-10-19T21:27:01.284Z,6.87
2018-10-19T21:29:29.063Z,6.88
2018-10-19T21:31:56.485Z,6.89
2018-10-19T21:34:23.978Z,6.89
2018-10-19T21:36:51.818Z,6.91
2018-10-19T21:39:19.274Z,6.92
2018-10-19T21:41:46.744Z,6.92
2018-10-19T21:44:15.123Z,6.92
2018-10-19T21:46:42.513Z,6.93
2018-10-19T21:49:10.025Z,6.94
2018-10-19T21:51:37.821Z,6.95
2018-10-19T21:54:05.323Z,6.97
2018-10-19T21:56:32.770Z,6.97
2018-10-19T21:59:00.644Z,6.98
2018-10-19T22:01:28.125Z,6.99
2018-10-19T22:03:55.697Z,7.00
2018-10-19T22:06:23.463Z,7.02
2018-10-19T22:08:50.965Z,7.02
2018-10-19T22:11:18.445Z,7.02
2018-10-19T22:13:46.170Z,7.02
2018-10-19T22:16:13.644Z,7.03
2018-10-19T22:18:41.088Z,7.04
2018-10-19T22:21:09.017Z,7.05
2018-10-19T22:23:36.527Z,7.05
2018-10-19T22:26:04.094Z,7.05
2018-10-19T22:28:31.823Z,7.04
2018-10-19T22:30:59.295Z,7.04
2018-10-19T22:33:26.706Z,7.04
2018-10-19T22:35:54.642Z,7.05
2018-10-19T22:38:22.117Z,7.06
2018-10-19T22:40:49.627Z,7.06
2018-10-19T22:43:17.673Z,7.06
2018-10-19T22:45:45.167Z,7.06
2018-10-19T22:48:12.685Z,7.06
2018-10-19T22:50:40.284Z,7.06
2018-10-19T22:53:07.817Z,7.05
2018-10-19T22:55:35.324Z,7.05
2018-10-19T22:58:03.040Z,7.03
2018-10-19T23:00:30.473Z,7.03
2018-10-19T23:02:57.956Z,7.02
2018-10-19T23:05:25.823Z,7.03
2018-10-19T23:07:53.289Z,7.03
2018-10-19T23:10:20.755Z,7.03
2018-10-19T23:12:48.799Z,7.03
2018-10-19T23:16:18.937Z,7.04
2018-10-19T23:18:46.823Z,7.03
2018-10-19T23:21:14.261Z,7.02
2018-10-19T23:23:41.659Z,7.02
2018-10-19T23:26:09.415Z,6.99
2018-10-19T23:28:36.834Z,6.99
2018-10-19T23:31:04.417Z,6.99
2018-10-19T23:33:32.067Z,6.99
2018-10-19T23:35:59.546Z,6.98
2018-10-19T23:38:27.049Z,6.99
2018-10-19T23:40:54.943Z,6.98
2018-10-19T23:43:22.373Z,6.99
2018-10-19T23:45:49.861Z,7.00
2018-10-19T23:48:17.729Z,6.98
2018-10-19T23:50:45.234Z,6.92
2018-10-19T23:53:12.821Z,6.99
2018-10-19T23:55:40.679Z,6.96
2018-10-19T23:58:08.205Z,6.94
